sensor_id;sensor_type;location;lat;lon;timestamp;temperature;humidity
70851;DHT22;58475;49.662;9.636;2023-07-24T00:01:16;17.52;80.66
70851;DHT22;58475;49.662;9.636;2023-07-24T00:03:43;17.58;80.78
70851;DHT22;58475;49.662;9.636;2023-07-24T00:06:09;17.54;81.10
70851;DHT22;58475;49.662;9.636;2023-07-24T00:08:34;17.61;80.69
70851;DHT22;58475;49.662;9.636;2023-07-24T00:10:59;17.79;79.46
70851;DHT22;58475;49.662;9.636;2023-07-24T00:13:25;17.62;79.57
70851;DHT22;58475;49.662;9.636;2023-07-24T00:15:50;17.61;79.55
70851;DHT22;58475;49.662;9.636;2023-07-24T00:18:16;17.55;79.61
70851;DHT22;58475;49.662;9.636;2023-07-24T00:20:41;17.59;79.72
70851;DHT22;58475;49.662;9.636;2023-07-24T00:23:07;17.69;79.34
70851;DHT22;58475;49.662;9.636;2023-07-24T00:25:32;17.90;78.25
70851;DHT22;58475;49.662;9.636;2023-07-24T00:27:57;18.02;77.33
70851;DHT22;58475;49.662;9.636;2023-07-24T00:30:22;18.16;77.68
70851;DHT22;58475;49.662;9.636;2023-07-24T00:32:49;17.95;77.63
70851;DHT22;58475;49.662;9.636;2023-07-24T00:35:15;17.45;80.57
70851;DHT22;58475;49.662;9.636;2023-07-24T00:37:40;17.71;79.62
70851;DHT22;58475;49.662;9.636;2023-07-24T00:40:06;17.28;81.80
70851;DHT22;58475;49.662;9.636;2023-07-24T00:42:32;17.45;80.71
70851;DHT22;58475;49.662;9.636;2023-07-24T00:44:57;17.35;80.89
70851;DHT22;58475;49.662;9.636;2023-07-24T00:47:25;17.41;80.13
70851;DHT22;58475;49.662;9.636;2023-07-24T00:49:51;17.49;80.23
70851;DHT22;58475;49.662;9.636;2023-07-24T00:52:16;17.17;80.99
70851;DHT22;58475;49.662;9.636;2023-07-24T00:54:43;17.07;81.46
70851;DHT22;58475;49.662;9.636;2023-07-24T00:57:12;16.88;82.54
70851;DHT22;58475;49.662;9.636;2023-07-24T00:59:38;16.97;82.29
70851;DHT22;58475;49.662;9.636;2023-07-24T01:02:03;16.87;82.25
70851;DHT22;58475;49.662;9.636;2023-07-24T01:04:29;16.94;82.16
70851;DHT22;58475;49.662;9.636;2023-07-24T01:06:56;16.45;83.95
70851;DHT22;58475;49.662;9.636;2023-07-24T01:09:22;16.72;82.67
70851;DHT22;58475;49.662;9.636;2023-07-24T01:11:52;16.72;82.52
70851;DHT22;58475;49.662;9.636;2023-07-24T01:14:31;16.73;82.82
70851;DHT22;58475;49.662;9.636;2023-07-24T01:16:58;16.35;83.91
70851;DHT22;58475;49.662;9.636;2023-07-24T01:19:36;16.42;83.51
70851;DHT22;58475;49.662;9.636;2023-07-24T01:25:05;16.57;82.13
70851;DHT22;58475;49.662;9.636;2023-07-24T01:27:34;16.48;83.13
70851;DHT22;58475;49.662;9.636;2023-07-24T01:30:00;16.32;83.29
70851;DHT22;58475;49.662;9.636;2023-07-24T01:32:25;16.39;83.22
70851;DHT22;58475;49.662;9.636;2023-07-24T01:34:51;16.39;83.23
70851;DHT22;58475;49.662;9.636;2023-07-24T01:37:18;16.39;82.92
70851;DHT22;58475;49.662;9.636;2023-07-24T01:39:46;16.21;83.54
70851;DHT22;58475;49.662;9.636;2023-07-24T01:42:12;16.30;83.48
70851;DHT22;58475;49.662;9.636;2023-07-24T01:44:38;16.24;83.52
70851;DHT22;58475;49.662;9.636;2023-07-24T01:47:03;16.52;82.44
70851;DHT22;58475;49.662;9.636;2023-07-24T01:49:29;16.51;81.77
70851;DHT22;58475;49.662;9.636;2023-07-24T01:51:54;16.36;83.02
70851;DHT22;58475;49.662;9.636;2023-07-24T01:54:19;16.38;82.63
70851;DHT22;58475;49.662;9.636;2023-07-24T01:56:45;16.62;80.82
70851;DHT22;58475;49.662;9.636;2023-07-24T01:59:10;16.38;83.21
70851;DHT22;58475;49.662;9.636;2023-07-24T02:01:35;16.52;82.73
70851;DHT22;58475;49.662;9.636;2023-07-24T02:04:01;16.59;82.46
70851;DHT22;58475;49.662;9.636;2023-07-24T02:06:27;16.42;82.43
70851;DHT22;58475;49.662;9.636;2023-07-24T02:08:52;16.24;83.46
70851;DHT22;58475;49.662;9.636;2023-07-24T02:11:18;16.30;82.53
70851;DHT22;58475;49.662;9.636;2023-07-24T02:13:44;16.01;84.26
70851;DHT22;58475;49.662;9.636;2023-07-24T02:16:13;16.11;83.64
70851;DHT22;58475;49.662;9.636;2023-07-24T02:18:41;16.09;84.06
70851;DHT22;58475;49.662;9.636;2023-07-24T02:21:07;16.26;83.67
70851;DHT22;58475;49.662;9.636;2023-07-24T02:23:32;16.32;82.89
70851;DHT22;58475;49.662;9.636;2023-07-24T02:25:58;16.44;82.58
70851;DHT22;58475;49.662;9.636;2023-07-24T02:28:23;16.69;82.00
70851;DHT22;58475;49.662;9.636;2023-07-24T02:30:51;16.84;82.03
70851;DHT22;58475;49.662;9.636;2023-07-24T02:33:17;16.73;82.79
70851;DHT22;58475;49.662;9.636;2023-07-24T02:35:43;16.62;83.42
70851;DHT22;58475;49.662;9.636;2023-07-24T02:38:08;16.24;83.87
70851;DHT22;58475;49.662;9.636;2023-07-24T02:40:35;15.90;85.03
70851;DHT22;58475;49.662;9.636;2023-07-24T02:43:00;15.93;85.19
70851;DHT22;58475;49.662;9.636;2023-07-24T02:45:25;16.19;83.98
70851;DHT22;58475;49.662;9.636;2023-07-24T02:47:51;16.21;82.65
70851;DHT22;58475;49.662;9.636;2023-07-24T02:50:16;16.24;83.09
70851;DHT22;58475;49.662;9.636;2023-07-24T02:52:41;16.21;82.94
70851;DHT22;58475;49.662;9.636;2023-07-24T02:55:07;16.25;82.98
70851;DHT22;58475;49.662;9.636;2023-07-24T02:57:32;16.36;83.12
70851;DHT22;58475;49.662;9.636;2023-07-24T02:59:58;16.26;83.41
70851;DHT22;58475;49.662;9.636;2023-07-24T03:02:24;16.21;83.80
70851;DHT22;58475;49.662;9.636;2023-07-24T03:04:49;16.02;84.41
70851;DHT22;58475;49.662;9.636;2023-07-24T03:07:14;15.97;84.07
70851;DHT22;58475;49.662;9.636;2023-07-24T03:09:40;15.93;85.17
70851;DHT22;58475;49.662;9.636;2023-07-24T03:12:05;15.94;84.80
70851;DHT22;58475;49.662;9.636;2023-07-24T03:14:31;15.90;84.95
70851;DHT22;58475;49.662;9.636;2023-07-24T03:16:56;15.77;85.81
70851;DHT22;58475;49.662;9.636;2023-07-24T03:19:21;15.71;85.59
70851;DHT22;58475;49.662;9.636;2023-07-24T03:21:47;15.71;86.08
70851;DHT22;58475;49.662;9.636;2023-07-24T03:24:12;15.70;85.91
70851;DHT22;58475;49.662;9.636;2023-07-24T03:26:37;15.74;85.96
70851;DHT22;58475;49.662;9.636;2023-07-24T03:29:04;15.81;86.10
70851;DHT22;58475;49.662;9.636;2023-07-24T03:31:30;15.80;86.71
70851;DHT22;58475;49.662;9.636;2023-07-24T03:33:55;15.86;85.93
70851;DHT22;58475;49.662;9.636;2023-07-24T03:36:20;15.94;85.35
70851;DHT22;58475;49.662;9.636;2023-07-24T03:38:46;15.84;85.73
70851;DHT22;58475;49.662;9.636;2023-07-24T03:41:11;15.74;86.07
70851;DHT22;58475;49.662;9.636;2023-07-24T03:43:36;16.02;85.20
70851;DHT22;58475;49.662;9.636;2023-07-24T03:46:02;16.14;85.02
70851;DHT22;58475;49.662;9.636;2023-07-24T03:48:28;16.18;85.20
70851;DHT22;58475;49.662;9.636;2023-07-24T03:51:00;15.91;85.53
70851;DHT22;58475;49.662;9.636;2023-07-24T03:53:26;15.63;86.05
70851;DHT22;58475;49.662;9.636;2023-07-24T03:55:51;15.73;85.73
70851;DHT22;58475;49.662;9.636;2023-07-24T03:58:17;15.84;85.65
70851;DHT22;58475;49.662;9.636;2023-07-24T04:00:42;15.91;85.27
70851;DHT22;58475;49.662;9.636;2023-07-24T04:03:09;16.04;84.80
70851;DHT22;58475;49.662;9.636;2023-07-24T04:05:35;16.04;85.13
70851;DHT22;58475;49.662;9.636;2023-07-24T04:08:00;15.86;85.35
70851;DHT22;58475;49.662;9.636;2023-07-24T04:10:26;15.78;86.27
70851;DHT22;58475;49.662;9.636;2023-07-24T04:12:51;15.94;85.38
70851;DHT22;58475;49.662;9.636;2023-07-24T04:15:17;16.00;85.13
70851;DHT22;58475;49.662;9.636;2023-07-24T04:17:42;16.00;85.21
70851;DHT22;58475;49.662;9.636;2023-07-24T04:20:08;16.12;85.81
70851;DHT22;58475;49.662;9.636;2023-07-24T04:22:34;16.38;85.07
70851;DHT22;58475;49.662;9.636;2023-07-24T04:24:59;16.41;84.39
70851;DHT22;58475;49.662;9.636;2023-07-24T04:27:24;16.59;84.01
70851;DHT22;58475;49.662;9.636;2023-07-24T04:29:50;16.45;84.61
70851;DHT22;58475;49.662;9.636;2023-07-24T04:32:15;16.41;85.08
70851;DHT22;58475;49.662;9.636;2023-07-24T04:34:40;16.51;84.18
70851;DHT22;58475;49.662;9.636;2023-07-24T04:37:06;16.70;83.41
70851;DHT22;58475;49.662;9.636;2023-07-24T04:39:31;16.60;83.11
70851;DHT22;58475;49.662;9.636;2023-07-24T04:41:56;16.72;82.15
70851;DHT22;58475;49.662;9.636;2023-07-24T04:44:22;16.84;82.27
70851;DHT22;58475;49.662;9.636;2023-07-24T04:46:47;16.84;82.62
70851;DHT22;58475;49.662;9.636;2023-07-24T04:49:12;17.17;81.83
70851;DHT22;58475;49.662;9.636;2023-07-24T04:51:38;17.24;82.20
70851;DHT22;58475;49.662;9.636;2023-07-24T04:54:03;17.28;82.34
70851;DHT22;58475;49.662;9.636;2023-07-24T04:56:29;17.17;82.21
70851;DHT22;58475;49.662;9.636;2023-07-24T04:58:54;17.35;81.93
70851;DHT22;58475;49.662;9.636;2023-07-24T05:01:19;17.42;81.50
70851;DHT22;58475;49.662;9.636;2023-07-24T05:03:45;17.41;81.55
70851;DHT22;58475;49.662;9.636;2023-07-24T05:06:10;17.47;82.62
70851;DHT22;58475;49.662;9.636;2023-07-24T05:08:35;17.69;80.91
70851;DHT22;58475;49.662;9.636;2023-07-24T05:11:01;17.66;80.94
70851;DHT22;58475;49.662;9.636;2023-07-24T05:13:26;17.93;80.19
70851;DHT22;58475;49.662;9.636;2023-07-24T05:15:52;17.82;82.15
70851;DHT22;58475;49.662;9.636;2023-07-24T05:18:17;18.09;81.28
70851;DHT22;58475;49.662;9.636;2023-07-24T05:20:45;18.22;80.27
70851;DHT22;58475;49.662;9.636;2023-07-24T05:23:11;18.48;80.16
70851;DHT22;58475;49.662;9.636;2023-07-24T05:25:36;18.47;79.56
70851;DHT22;58475;49.662;9.636;2023-07-24T05:28:02;18.87;79.03
70851;DHT22;58475;49.662;9.636;2023-07-24T05:30:28;19.08;77.99
70851;DHT22;58475;49.662;9.636;2023-07-24T05:32:53;19.09;77.02
70851;DHT22;58475;49.662;9.636;2023-07-24T05:35:19;18.96;78.03
70851;DHT22;58475;49.662;9.636;2023-07-24T05:37:44;18.83;78.15
70851;DHT22;58475;49.662;9.636;2023-07-24T05:40:09;18.79;78.78
70851;DHT22;58475;49.662;9.636;2023-07-24T05:42:35;18.71;79.30
70851;DHT22;58475;49.662;9.636;2023-07-24T05:45:07;18.79;79.34
70851;DHT22;58475;49.662;9.636;2023-07-24T05:47:32;18.81;79.07
70851;DHT22;58475;49.662;9.636;2023-07-24T05:49:58;18.72;79.37
70851;DHT22;58475;49.662;9.636;2023-07-24T05:52:23;18.74;79.42
70851;DHT22;58475;49.662;9.636;2023-07-24T05:54:49;18.84;80.09
70851;DHT22;58475;49.662;9.636;2023-07-24T05:57:14;18.92;79.77
70851;DHT22;58475;49.662;9.636;2023-07-24T05:59:39;18.81;79.90
70851;DHT22;58475;49.662;9.636;2023-07-24T06:02:05;18.87;80.09
70851;DHT22;58475;49.662;9.636;2023-07-24T06:04:31;18.96;80.30
70851;DHT22;58475;49.662;9.636;2023-07-24T06:06:56;19.06;80.30
70851;DHT22;58475;49.662;9.636;2023-07-24T06:09:21;19.01;80.43
70851;DHT22;58475;49.662;9.636;2023-07-24T06:11:47;19.04;80.21
70851;DHT22;58475;49.662;9.636;2023-07-24T06:14:12;19.09;81.18
70851;DHT22;58475;49.662;9.636;2023-07-24T06:16:37;19.02;81.13
70851;DHT22;58475;49.662;9.636;2023-07-24T06:19:03;18.83;81.10
70851;DHT22;58475;49.662;9.636;2023-07-24T06:21:28;18.96;81.46
70851;DHT22;58475;49.662;9.636;2023-07-24T06:23:54;18.98;81.33
70851;DHT22;58475;49.662;9.636;2023-07-24T06:26:19;18.96;80.85
70851;DHT22;58475;49.662;9.636;2023-07-24T06:28:44;18.96;80.46
70851;DHT22;58475;49.662;9.636;2023-07-24T06:31:10;18.95;80.45
70851;DHT22;58475;49.662;9.636;2023-07-24T06:33:35;18.99;80.47
70851;DHT22;58475;49.662;9.636;2023-07-24T06:36:00;19.08;80.55
70851;DHT22;58475;49.662;9.636;2023-07-24T06:38:26;19.05;81.07
70851;DHT22;58475;49.662;9.636;2023-07-24T06:40:51;19.06;80.42
70851;DHT22;58475;49.662;9.636;2023-07-24T06:43:16;19.26;81.09
70851;DHT22;58475;49.662;9.636;2023-07-24T06:45:42;19.36;79.99
70851;DHT22;58475;49.662;9.636;2023-07-24T06:48:07;19.36;79.83
70851;DHT22;58475;49.662;9.636;2023-07-24T06:50:32;19.40;79.47
70851;DHT22;58475;49.662;9.636;2023-07-24T06:52:58;19.47;80.15
70851;DHT22;58475;49.662;9.636;2023-07-24T06:55:23;19.57;80.27
70851;DHT22;58475;49.662;9.636;2023-07-24T06:57:49;19.66;80.15
70851;DHT22;58475;49.662;9.636;2023-07-24T07:00:14;19.64;80.52
70851;DHT22;58475;49.662;9.636;2023-07-24T07:02:40;19.69;80.69
70851;DHT22;58475;49.662;9.636;2023-07-24T07:05:05;19.78;80.79
70851;DHT22;58475;49.662;9.636;2023-07-24T07:07:31;19.81;81.44
70851;DHT22;58475;49.662;9.636;2023-07-24T07:09:57;19.98;80.35
70851;DHT22;58475;49.662;9.636;2023-07-24T07:12:22;20.01;80.57
70851;DHT22;58475;49.662;9.636;2023-07-24T07:14:47;20.15;80.50
70851;DHT22;58475;49.662;9.636;2023-07-24T07:17:13;20.28;80.05
70851;DHT22;58475;49.662;9.636;2023-07-24T07:19:38;20.25;79.39
70851;DHT22;58475;49.662;9.636;2023-07-24T07:22:04;20.48;79.02
70851;DHT22;58475;49.662;9.636;2023-07-24T07:24:29;20.69;78.56
70851;DHT22;58475;49.662;9.636;2023-07-24T07:26:54;20.71;77.73
70851;DHT22;58475;49.662;9.636;2023-07-24T07:29:20;20.94;77.75
70851;DHT22;58475;49.662;9.636;2023-07-24T07:31:45;21.38;76.11
70851;DHT22;58475;49.662;9.636;2023-07-24T07:34:11;21.69;75.35
70851;DHT22;58475;49.662;9.636;2023-07-24T07:36:36;21.68;74.83
70851;DHT22;58475;49.662;9.636;2023-07-24T07:39:02;21.85;74.91
70851;DHT22;58475;49.662;9.636;2023-07-24T07:41:27;21.89;76.44
70851;DHT22;58475;49.662;9.636;2023-07-24T07:43:54;22.05;76.55
70851;DHT22;58475;49.662;9.636;2023-07-24T07:46:19;22.64;75.75
70851;DHT22;58475;49.662;9.636;2023-07-24T07:48:45;22.83;73.69
70851;DHT22;58475;49.662;9.636;2023-07-24T07:51:12;22.97;74.56
70851;DHT22;58475;49.662;9.636;2023-07-24T07:53:37;22.92;74.40
70851;DHT22;58475;49.662;9.636;2023-07-24T07:56:04;22.95;72.97
70851;DHT22;58475;49.662;9.636;2023-07-24T07:58:29;22.91;70.37
70851;DHT22;58475;49.662;9.636;2023-07-24T08:00:55;22.92;68.31
70851;DHT22;58475;49.662;9.636;2023-07-24T08:03:20;22.90;69.15
70851;DHT22;58475;49.662;9.636;2023-07-24T08:05:46;23.16;70.95
70851;DHT22;58475;49.662;9.636;2023-07-24T08:08:11;23.15;71.24
70851;DHT22;58475;49.662;9.636;2023-07-24T08:10:38;23.01;70.87
70851;DHT22;58475;49.662;9.636;2023-07-24T08:13:03;22.91;70.91
70851;DHT22;58475;49.662;9.636;2023-07-24T08:15:28;22.80;70.96
70851;DHT22;58475;49.662;9.636;2023-07-24T08:17:54;22.59;68.55
70851;DHT22;58475;49.662;9.636;2023-07-24T08:20:19;22.19;72.85
70851;DHT22;58475;49.662;9.636;2023-07-24T08:22:44;21.74;75.88
70851;DHT22;58475;49.662;9.636;2023-07-24T08:25:10;21.40;76.77
70851;DHT22;58475;49.662;9.636;2023-07-24T08:27:35;21.04;77.66
70851;DHT22;58475;49.662;9.636;2023-07-24T08:30:00;20.87;78.77
70851;DHT22;58475;49.662;9.636;2023-07-24T08:32:26;20.96;79.22
70851;DHT22;58475;49.662;9.636;2023-07-24T08:34:51;20.89;79.93
70851;DHT22;58475;49.662;9.636;2023-07-24T08:37:16;20.75;80.88
70851;DHT22;58475;49.662;9.636;2023-07-24T08:39:42;20.66;81.02
70851;DHT22;58475;49.662;9.636;2023-07-24T08:42:08;20.61;81.30
70851;DHT22;58475;49.662;9.636;2023-07-24T08:44:34;20.41;82.69
70851;DHT22;58475;49.662;9.636;2023-07-24T08:47:00;20.42;82.05
70851;DHT22;58475;49.662;9.636;2023-07-24T08:49:26;20.35;82.63
70851;DHT22;58475;49.662;9.636;2023-07-24T08:51:53;20.31;82.57
70851;DHT22;58475;49.662;9.636;2023-07-24T08:54:19;20.13;83.60
70851;DHT22;58475;49.662;9.636;2023-07-24T08:56:45;20.20;83.30
70851;DHT22;58475;49.662;9.636;2023-07-24T08:59:14;20.24;82.77
70851;DHT22;58475;49.662;9.636;2023-07-24T09:01:40;20.34;83.08
70851;DHT22;58475;49.662;9.636;2023-07-24T09:04:05;20.35;83.68
70851;DHT22;58475;49.662;9.636;2023-07-24T09:06:31;20.32;82.89
70851;DHT22;58475;49.662;9.636;2023-07-24T09:08:56;20.41;83.04
70851;DHT22;58475;49.662;9.636;2023-07-24T09:11:21;20.31;85.36
70851;DHT22;58475;49.662;9.636;2023-07-24T09:13:47;20.48;84.09
70851;DHT22;58475;49.662;9.636;2023-07-24T09:16:23;20.62;84.19
70851;DHT22;58475;49.662;9.636;2023-07-24T09:18:48;20.93;82.12
70851;DHT22;58475;49.662;9.636;2023-07-24T09:21:27;20.86;82.98
70851;DHT22;58475;49.662;9.636;2023-07-24T09:23:52;20.82;83.39
70851;DHT22;58475;49.662;9.636;2023-07-24T09:26:17;20.93;83.81
70851;DHT22;58475;49.662;9.636;2023-07-24T09:28:51;20.92;83.61
70851;DHT22;58475;49.662;9.636;2023-07-24T09:31:17;20.96;83.73
70851;DHT22;58475;49.662;9.636;2023-07-24T09:33:43;21.08;83.15
70851;DHT22;58475;49.662;9.636;2023-07-24T09:36:11;20.87;83.56
70851;DHT22;58475;49.662;9.636;2023-07-24T09:38:38;21.17;82.58
70851;DHT22;58475;49.662;9.636;2023-07-24T09:41:05;21.35;81.58
70851;DHT22;58475;49.662;9.636;2023-07-24T09:43:31;22.26;79.71
70851;DHT22;58475;49.662;9.636;2023-07-24T09:45:57;23.42;77.69
70851;DHT22;58475;49.662;9.636;2023-07-24T09:48:25;23.55;75.13
70851;DHT22;58475;49.662;9.636;2023-07-24T09:50:55;24.25;74.45
70851;DHT22;58475;49.662;9.636;2023-07-24T09:53:22;24.80;73.03
70851;DHT22;58475;49.662;9.636;2023-07-24T09:55:56;23.96;73.95
70851;DHT22;58475;49.662;9.636;2023-07-24T09:58:23;24.03;74.82
70851;DHT22;58475;49.662;9.636;2023-07-24T10:00:49;24.16;73.55
70851;DHT22;58475;49.662;9.636;2023-07-24T10:03:16;23.86;74.44
70851;DHT22;58475;49.662;9.636;2023-07-24T10:05:44;23.65;74.21
70851;DHT22;58475;49.662;9.636;2023-07-24T10:08:18;23.41;74.39
70851;DHT22;58475;49.662;9.636;2023-07-24T10:10:43;23.39;74.98
70851;DHT22;58475;49.662;9.636;2023-07-24T10:13:11;23.52;74.12
70851;DHT22;58475;49.662;9.636;2023-07-24T10:15:39;23.43;73.71
70851;DHT22;58475;49.662;9.636;2023-07-24T10:18:06;23.01;74.48
70851;DHT22;58475;49.662;9.636;2023-07-24T10:20:36;23.04;75.47
70851;DHT22;58475;49.662;9.636;2023-07-24T10:23:02;23.15;75.24
70851;DHT22;58475;49.662;9.636;2023-07-24T10:25:35;23.25;75.21
70851;DHT22;58475;49.662;9.636;2023-07-24T10:28:09;23.05;75.03
70851;DHT22;58475;49.662;9.636;2023-07-24T10:30:40;23.00;75.47
70851;DHT22;58475;49.662;9.636;2023-07-24T10:33:17;23.04;75.25
70851;DHT22;58475;49.662;9.636;2023-07-24T10:35:44;23.16;76.24
70851;DHT22;58475;49.662;9.636;2023-07-24T10:38:12;23.09;74.99
70851;DHT22;58475;49.662;9.636;2023-07-24T10:40:39;23.22;76.71
70851;DHT22;58475;49.662;9.636;2023-07-24T10:43:06;23.39;75.72
70851;DHT22;58475;49.662;9.636;2023-07-24T10:48:19;23.09;75.87
70851;DHT22;58475;49.662;9.636;2023-07-24T10:50:48;23.15;76.08
70851;DHT22;58475;49.662;9.636;2023-07-24T10:53:16;23.30;75.43
70851;DHT22;58475;49.662;9.636;2023-07-24T10:55:45;23.21;76.14
70851;DHT22;58475;49.662;9.636;2023-07-24T10:58:12;23.38;75.77
70851;DHT22;58475;49.662;9.636;2023-07-24T11:00:39;23.37;75.54
70851;DHT22;58475;49.662;9.636;2023-07-24T11:03:08;23.19;76.50
70851;DHT22;58475;49.662;9.636;2023-07-24T11:05:34;23.12;76.50
70851;DHT22;58475;49.662;9.636;2023-07-24T11:08:00;23.09;76.68
70851;DHT22;58475;49.662;9.636;2023-07-24T11:10:25;23.15;77.06
70851;DHT22;58475;49.662;9.636;2023-07-24T11:12:51;23.29;76.48
70851;DHT22;58475;49.662;9.636;2023-07-24T11:15:24;23.22;76.45
70851;DHT22;58475;49.662;9.636;2023-07-24T11:17:50;23.04;76.59
70851;DHT22;58475;49.662;9.636;2023-07-24T11:20:16;22.91;77.33
70851;DHT22;58475;49.662;9.636;2023-07-24T11:22:43;22.88;77.45
70851;DHT22;58475;49.662;9.636;2023-07-24T11:25:11;22.83;77.17
70851;DHT22;58475;49.662;9.636;2023-07-24T11:27:43;22.87;77.29
70851;DHT22;58475;49.662;9.636;2023-07-24T11:30:12;22.88;77.69
70851;DHT22;58475;49.662;9.636;2023-07-24T11:32:43;22.90;77.79
70851;DHT22;58475;49.662;9.636;2023-07-24T11:35:09;22.80;77.54
70851;DHT22;58475;49.662;9.636;2023-07-24T11:37:35;22.71;78.26
70851;DHT22;58475;49.662;9.636;2023-07-24T11:40:03;22.54;77.37
70851;DHT22;58475;49.662;9.636;2023-07-24T11:42:33;22.53;77.85
70851;DHT22;58475;49.662;9.636;2023-07-24T11:45:01;22.44;77.60
70851;DHT22;58475;49.662;9.636;2023-07-24T11:47:28;22.35;77.99
70851;DHT22;58475;49.662;9.636;2023-07-24T11:50:01;22.59;77.60
70851;DHT22;58475;49.662;9.636;2023-07-24T11:52:40;22.70;77.11
70851;DHT22;58475;49.662;9.636;2023-07-24T11:55:09;22.84;77.47
70851;DHT22;58475;49.662;9.636;2023-07-24T11:57:34;22.80;77.05
70851;DHT22;58475;49.662;9.636;2023-07-24T11:59:59;23.01;76.70
70851;DHT22;58475;49.662;9.636;2023-07-24T12:02:26;22.94;76.62
70851;DHT22;58475;49.662;9.636;2023-07-24T12:04:56;23.01;77.39
70851;DHT22;58475;49.662;9.636;2023-07-24T12:07:33;23.25;76.10
70851;DHT22;58475;49.662;9.636;2023-07-24T12:10:03;23.15;76.00
70851;DHT22;58475;49.662;9.636;2023-07-24T12:12:44;23.14;76.82
70851;DHT22;58475;49.662;9.636;2023-07-24T12:15:10;23.29;76.13
70851;DHT22;58475;49.662;9.636;2023-07-24T12:17:36;23.21;76.15
70851;DHT22;58475;49.662;9.636;2023-07-24T12:20:03;23.37;76.43
70851;DHT22;58475;49.662;9.636;2023-07-24T12:22:31;23.67;75.48
70851;DHT22;58475;49.662;9.636;2023-07-24T12:24:56;23.81;74.88
70851;DHT22;58475;49.662;9.636;2023-07-24T12:27:22;24.24;74.66
70851;DHT22;58475;49.662;9.636;2023-07-24T12:29:47;24.18;73.61
70851;DHT22;58475;49.662;9.636;2023-07-24T12:32:12;24.72;72.32
70851;DHT22;58475;49.662;9.636;2023-07-24T12:34:38;24.47;72.53
70851;DHT22;58475;49.662;9.636;2023-07-24T12:37:03;24.78;70.95
70851;DHT22;58475;49.662;9.636;2023-07-24T12:39:29;25.03;71.67
70851;DHT22;58475;49.662;9.636;2023-07-24T12:41:54;25.20;71.00
70851;DHT22;58475;49.662;9.636;2023-07-24T12:44:19;25.12;70.37
70851;DHT22;58475;49.662;9.636;2023-07-24T12:46:45;25.57;69.86
70851;DHT22;58475;49.662;9.636;2023-07-24T12:49:10;26.21;68.76
70851;DHT22;58475;49.662;9.636;2023-07-24T12:51:35;25.92;68.42
70851;DHT22;58475;49.662;9.636;2023-07-24T12:54:01;26.24;68.15
70851;DHT22;58475;49.662;9.636;2023-07-24T12:56:27;26.90;66.97
70851;DHT22;58475;49.662;9.636;2023-07-24T12:58:52;26.94;66.35
70851;DHT22;58475;49.662;9.636;2023-07-24T13:01:17;26.47;65.72
70851;DHT22;58475;49.662;9.636;2023-07-24T13:03:43;26.79;67.13
70851;DHT22;58475;49.662;9.636;2023-07-24T13:06:08;26.97;67.17
70851;DHT22;58475;49.662;9.636;2023-07-24T13:08:33;26.69;67.19
70851;DHT22;58475;49.662;9.636;2023-07-24T13:10:59;26.31;66.95
70851;DHT22;58475;49.662;9.636;2023-07-24T13:13:24;25.91;67.06
70851;DHT22;58475;49.662;9.636;2023-07-24T13:15:50;25.53;68.16
70851;DHT22;58475;49.662;9.636;2023-07-24T13:18:16;25.68;68.30
70851;DHT22;58475;49.662;9.636;2023-07-24T13:20:42;26.01;67.36
70851;DHT22;58475;49.662;9.636;2023-07-24T13:23:08;25.58;68.66
70851;DHT22;58475;49.662;9.636;2023-07-24T13:25:33;25.43;68.04
70851;DHT22;58475;49.662;9.636;2023-07-24T13:28:02;25.23;69.13
70851;DHT22;58475;49.662;9.636;2023-07-24T13:30:27;25.16;69.76
70851;DHT22;58475;49.662;9.636;2023-07-24T13:32:53;25.30;69.84
70851;DHT22;58475;49.662;9.636;2023-07-24T13:35:18;25.70;67.44
70851;DHT22;58475;49.662;9.636;2023-07-24T13:37:43;26.26;67.68
70851;DHT22;58475;49.662;9.636;2023-07-24T13:40:10;27.01;65.01
70851;DHT22;58475;49.662;9.636;2023-07-24T13:42:35;26.53;66.01
70851;DHT22;58475;49.662;9.636;2023-07-24T13:45:01;26.45;64.89
70851;DHT22;58475;49.662;9.636;2023-07-24T13:47:26;26.31;65.84
70851;DHT22;58475;49.662;9.636;2023-07-24T13:49:52;25.68;66.29
70851;DHT22;58475;49.662;9.636;2023-07-24T13:52:17;25.71;67.32
70851;DHT22;58475;49.662;9.636;2023-07-24T13:54:42;25.80;67.29
70851;DHT22;58475;49.662;9.636;2023-07-24T13:57:08;25.88;67.34
70851;DHT22;58475;49.662;9.636;2023-07-24T13:59:34;26.31;65.80
70851;DHT22;58475;49.662;9.636;2023-07-24T14:02:00;25.92;66.81
70851;DHT22;58475;49.662;9.636;2023-07-24T14:04:25;26.04;67.09
70851;DHT22;58475;49.662;9.636;2023-07-24T14:06:50;26.32;65.83
70851;DHT22;58475;49.662;9.636;2023-07-24T14:09:16;26.52;65.94
70851;DHT22;58475;49.662;9.636;2023-07-24T14:11:41;26.61;65.29
70851;DHT22;58475;49.662;9.636;2023-07-24T14:14:07;26.73;64.78
70851;DHT22;58475;49.662;9.636;2023-07-24T14:16:32;27.01;64.09
70851;DHT22;58475;49.662;9.636;2023-07-24T14:18:57;26.80;63.66
70851;DHT22;58475;49.662;9.636;2023-07-24T14:21:23;26.70;63.66
70851;DHT22;58475;49.662;9.636;2023-07-24T14:23:48;27.58;62.94
70851;DHT22;58475;49.662;9.636;2023-07-24T14:26:13;27.24;62.08
70851;DHT22;58475;49.662;9.636;2023-07-24T14:28:39;27.01;62.74
70851;DHT22;58475;49.662;9.636;2023-07-24T14:31:04;27.05;62.48
70851;DHT22;58475;49.662;9.636;2023-07-24T14:33:30;27.31;61.88
70851;DHT22;58475;49.662;9.636;2023-07-24T14:35:55;27.52;62.23
70851;DHT22;58475;49.662;9.636;2023-07-24T14:38:21;26.80;62.58
70851;DHT22;58475;49.662;9.636;2023-07-24T14:40:46;26.77;62.29
70851;DHT22;58475;49.662;9.636;2023-07-24T14:43:12;27.08;61.32
70851;DHT22;58475;49.662;9.636;2023-07-24T14:45:37;26.86;61.78
70851;DHT22;58475;49.662;9.636;2023-07-24T14:48:03;26.39;62.51
70851;DHT22;58475;49.662;9.636;2023-07-24T14:50:28;26.18;61.51
70851;DHT22;58475;49.662;9.636;2023-07-24T14:52:54;25.88;61.25
70851;DHT22;58475;49.662;9.636;2023-07-24T14:55:19;25.96;62.18
70851;DHT22;58475;49.662;9.636;2023-07-24T14:57:44;25.58;63.41
70851;DHT22;58475;49.662;9.636;2023-07-24T15:00:10;25.58;63.79
70851;DHT22;58475;49.662;9.636;2023-07-24T15:02:36;25.80;63.60
70851;DHT22;58475;49.662;9.636;2023-07-24T15:05:01;25.68;63.46
70851;DHT22;58475;49.662;9.636;2023-07-24T15:07:27;25.34;63.09
70851;DHT22;58475;49.662;9.636;2023-07-24T15:09:52;24.97;63.82
70851;DHT22;58475;49.662;9.636;2023-07-24T15:12:17;24.97;63.98
70851;DHT22;58475;49.662;9.636;2023-07-24T15:14:43;24.83;64.10
70851;DHT22;58475;49.662;9.636;2023-07-24T15:17:08;24.55;64.08
70851;DHT22;58475;49.662;9.636;2023-07-24T15:19:34;24.42;65.68
70851;DHT22;58475;49.662;9.636;2023-07-24T15:21:59;24.27;67.59
70851;DHT22;58475;49.662;9.636;2023-07-24T15:24:24;24.00;68.91
70851;DHT22;58475;49.662;9.636;2023-07-24T15:26:50;23.67;70.35
70851;DHT22;58475;49.662;9.636;2023-07-24T15:29:15;23.39;70.99